地図

経路データ

SID SEASON NUMBER BASIN SUBBASIN NAME ISO_TIME NATURE LAT LON WMO_WIND WMO_PRES WMO_AGENCY TRACK_TYPE DIST2LAND LANDFALL IFLAG USA_AGENCY USA_ATCF_ID USA_LAT USA_LON USA_RECORD USA_STATUS USA_WIND USA_PRES USA_SSHS USA_R34_NE USA_R34_SE USA_R34_SW USA_R34_NW USA_R50_NE USA_R50_SE USA_R50_SW USA_R50_NW USA_R64_NE USA_R64_SE USA_R64_SW USA_R64_NW USA_POCI USA_ROCI USA_RMW USA_EYE TOKYO_LAT TOKYO_LON TOKYO_GRADE TOKYO_WIND TOKYO_PRES TOKYO_R50_DIR TOKYO_R50_LONG TOKYO_R50_SHORT TOKYO_R30_DIR TOKYO_R30_LONG TOKYO_R30_SHORT TOKYO_LAND CMA_LAT CMA_LON CMA_CAT CMA_WIND CMA_PRES HKO_LAT HKO_LON HKO_CAT HKO_WIND HKO_PRES NEWDELHI_LAT NEWDELHI_LON NEWDELHI_GRADE NEWDELHI_WIND NEWDELHI_PRES NEWDELHI_CI NEWDELHI_DP NEWDELHI_POCI REUNION_LAT REUNION_LON REUNION_TYPE REUNION_WIND REUNION_PRES REUNION_TNUM REUNION_CI REUNION_RMW REUNION_R34_NE REUNION_R34_SE REUNION_R34_SW REUNION_R34_NW REUNION_R50_NE REUNION_R50_SE REUNION_R50_SW REUNION_R50_NW REUNION_R64_NE REUNION_R64_SE REUNION_R64_SW REUNION_R64_NW BOM_LAT BOM_LON BOM_TYPE BOM_WIND BOM_PRES BOM_TNUM BOM_CI BOM_RMW BOM_R34_NE BOM_R34_SE BOM_R34_SW BOM_R34_NW BOM_R50_NE BOM_R50_SE BOM_R50_SW BOM_R50_NW BOM_R64_NE BOM_R64_SE BOM_R64_SW BOM_R64_NW BOM_ROCI BOM_POCI BOM_EYE BOM_POS_METHOD BOM_PRES_METHOD NADI_LAT NADI_LON NADI_CAT NADI_WIND NADI_PRES WELLINGTON_LAT WELLINGTON_LON WELLINGTON_WIND WELLINGTON_PRES DS824_LAT DS824_LON DS824_STAGE DS824_WIND DS824_PRES TD9636_LAT TD9636_LON TD9636_STAGE TD9636_WIND TD9636_PRES TD9635_LAT TD9635_LON TD9635_WIND TD9635_PRES TD9635_ROCI NEUMANN_LAT NEUMANN_LON NEUMANN_CLASS NEUMANN_WIND NEUMANN_PRES MLC_LAT MLC_LON MLC_CLASS MLC_WIND MLC_PRES USA_GUST BOM_GUST BOM_GUST_PER REUNION_GUST REUNION_GUST_PER USA_SEAHGT USA_SEARAD_NE USA_SEARAD_SE USA_SEARAD_SW USA_SEARAD_NW STORM_SPEED STORM_DIR
1942026S16116 1942 5 SI WA NOT_NAMED 1942-01-25 23:00:00 NR -16.0000 115.800 main 523 512 __________O___ -1 -16.0000 115.800 7 8 211
1942026S16116 1942 5 SI WA NOT_NAMED 1942-01-26 00:00:00 NR -16.1076 115.734 main 514 503 __________P___ -1 -16.1076 115.734 7 5 191
1942026S16116 1942 5 SI WA NOT_NAMED 1942-01-26 01:00:00 NR -16.1604 115.752 bom main 501 481 ______O___P___ -1 -16.0000 116.000 -16.2139 115.669 7 6 192
1942026S16116 1942 5 SI WA NOT_NAMED 1942-01-26 03:00:00 NR -16.3941 115.663 main 481 451 ______P___P___ -1 -16.3489 115.909 -16.4167 115.540 7 8 199
1942026S16116 1942 5 SI WA NOT_NAMED 1942-01-26 06:00:00 NR -16.7598 115.536 main 443 414 ______P___P___ -1 -16.8709 115.775 -16.6765 115.357 7 8 198
1942026S16116 1942 5 SI WA NOT_NAMED 1942-01-26 09:00:00 NR -17.1197 115.420 main 414 393 ______P___P___ -1 -17.3892 115.646 -16.8502 115.193 7 7 199
1942026S16116 1942 5 SI WA NOT_NAMED 1942-01-26 11:00:00 NR -17.3158 115.332 main 397 387 ______P___O___ -1 -17.7316 115.565 -16.9000 115.100 7 6 203
1942026S16116 1942 5 SI WA NOT_NAMED 1942-01-26 12:00:00 NR -17.4017 115.292 main 387 370 ______P___P___ -1 -17.9016 115.526 -16.9019 115.059 7 5 204
1942026S16116 1942 5 SI WA NOT_NAMED 1942-01-26 15:00:00 NR -17.6278 115.188 main 370 355 ______P___P___ -1 -18.4058 115.418 -16.8498 114.957 7 5 202
1942026S16116 1942 5 SI WA NOT_NAMED 1942-01-26 18:00:00 NR -17.8479 115.105 main 355 326 ______P___P___ -1 -18.8997 115.327 -16.7962 114.882 7 5 196
1942026S16116 1942 5 SI WA NOT_NAMED 1942-01-26 21:00:00 NR -18.1156 115.042 main 331 312 ______P___P___ -1 -19.3811 115.256 -16.8502 114.828 7 6 190
1942026S16116 1942 5 SI WA NOT_NAMED 1942-01-26 23:00:00 NR -18.3471 115.011 main 312 285 ______P___O___ -1 -19.6941 115.222 -17.0000 114.800 7 11 0
1942026S16116 1942 5 SI WA NOT_NAMED 1942-01-27 00:00:00 TS -18.6453 115.017 main 285 256 ______P__OP___ -1 -19.8480 115.210 -19.8000 115.200 TC 55 985 -17.1539 114.779 7 17 179
1942026S16116 1942 5 SI WA NOT_NAMED 1942-01-27 01:00:00 TS -18.9203 115.029 985 bom main 256 218 ______O__PP___ -1 -20.0000 115.200 985 4 -19.9292 115.229 TC -17.3361 114.759 7 14 176
1942026S16116 1942 5 SI WA NOT_NAMED 1942-01-27 03:00:00 TS -19.3483 115.047 main 218 157 ______P__PP___ -1 -20.2982 115.191 985 -20.1876 115.286 TC -17.7689 114.724 7 12 177
1942026S16116 1942 5 SI WA NOT_NAMED 1942-01-27 06:00:00 TS -19.9437 115.088 main 157 114 ______P__PP___ -1 -20.7295 115.203 985 -20.5752 115.372 TC -18.5265 114.689 7 11 176
1942026S16116 1942 5 SI WA NOT_NAMED 1942-01-27 09:00:00 TS -20.4721 115.130 main 106 76 ______P__PP___ -1 -21.1396 115.249 985 -20.9628 115.459 TC -19.3140 114.683 7 10 175
1942026S16116 1942 5 SI WA NOT_NAMED 1942-01-27 11:00:00 TS -20.8071 115.172 985 bom main 76 68 ______O__PO___ -1 -21.4000 115.300 985 -21.2213 115.517 TC -19.8000 114.700 7 10 172
1942026S16116 1942 5 SI WA NOT_NAMED 1942-01-27 12:00:00 TS -20.9614 115.198 main 60 22 ______P__PP___ -1 -21.5307 115.330 -21.3505 115.546 TC -20.0032 114.719 7 9 170
1942026S16116 1942 5 SI WA NOT_NAMED 1942-01-27 15:00:00 TS -21.4051 115.295 main 22 0 ______P__PP___ -1 -21.9078 115.448 -21.7380 115.634 TC -20.5695 114.804 7 9 167
1942026S16116 1942 5 SI WA NOT_NAMED 1942-01-27 18:00:00 TS -21.8171 115.411 main 0 0 ______P__PP___ -1 -22.2625 115.597 -22.1255 115.722 TC -21.0634 114.915 7 8 164
1942026S16116 1942 5 SI WA NOT_NAMED 1942-01-27 21:00:00 TS -22.1941 115.536 main 0 0 ______P__PP___ -1 -22.5942 115.765 -22.5128 115.811 TC -21.4754 115.031 7 8 163
1942026S16116 1942 5 SI WA NOT_NAMED 1942-01-27 23:00:00 TS -22.4244 115.618 main 0 0 ______P__PO___ -1 -22.8023 115.883 -22.7710 115.870 TC -21.7000 115.100 7 7 162
1942026S16116 1942 5 SI WA NOT_NAMED 1942-01-28 00:00:00 TS -22.5341 115.654 main 0 0 ______P__OP___ -1 -22.9025 115.942 -22.9000 115.900 TC -21.7997 115.120 7 6 160
1942026S16116 1942 5 SI WA NOT_NAMED 1942-01-28 01:00:00 TS -22.6210 115.696 bom main 0 0 ______O__PP___ -1 -23.0000 116.000 -22.9752 115.949 TC -21.8877 115.137 7 5 156
1942026S16116 1942 5 SI WA NOT_NAMED 1942-01-28 03:00:00 TS -22.7821 115.776 main 0 0 ______P__PP___ -1 -23.1872 116.114 -23.1255 116.048 TC -22.0334 115.167 7 5 154
1942026S16116 1942 5 SI WA NOT_NAMED 1942-01-28 06:00:00 TS -22.9989 115.894 main 0 0 ______P__PP___ -1 -23.4502 116.278 -23.3508 116.197 TC -22.1955 115.207 7 5 152
1942026S16116 1942 5 SI WA NOT_NAMED 1942-01-28 09:00:00 TS -23.1969 116.012 main 0 0 ______P__PP___ -1 -23.6943 116.435 -23.5761 116.346 TC -22.3204 115.255 7 5 150
1942026S16116 1942 5 SI WA NOT_NAMED 1942-01-28 11:00:00 TS -23.3247 116.094 main 0 0 ______P__PO___ -1 -23.8480 116.536 -23.7262 116.446 TC -22.4000 115.300 7 5 151
1942026S16116 1942 5 SI WA NOT_NAMED 1942-01-28 12:00:00 TS -23.3919 116.137 main 0 0 ______P__PP___ -1 -23.9224 116.586 -23.8012 116.496 TC -22.4521 115.330 7 5 148
1942026S16116 1942 5 SI WA NOT_NAMED 1942-01-28 15:00:00 TS -23.5888 116.272 main 0 0 ______P__PP___ -1 -24.1377 116.732 -24.0261 116.646 TC -22.6025 115.438 7 5 147
1942026S16116 1942 5 SI WA NOT_NAMED 1942-01-28 18:00:00 TS -23.7809 116.412 main 0 0 ______P__PP___ -1 -24.3430 116.875 -24.2509 116.797 TC -22.7486 115.564 7 4 146
1942026S16116 1942 5 SI WA NOT_NAMED 1942-01-28 21:00:00 TS -23.9254 116.520 main 0 0 ______P__PP___ -1 -24.5414 117.015 -24.4756 116.948 TC -22.8969 115.703 7 2 145
1942026S16116 1942 5 SI WA NOT_NAMED 1942-01-28 23:00:00 TS -23.9182 116.513 main 0 0 ______P__PO___ -1 -24.6711 117.107 -24.6252 117.049 TC -23.0000 115.800 7 4 324
1942026S16116 1942 5 SI WA NOT_NAMED 1942-01-29 00:00:00 TS -23.7695 116.400 main 0 0 ______P__OP___ -1 -24.7356 117.154 -24.7000 117.100 TC -23.0538 115.848 7 17 325
1942026S16116 1942 5 SI WA NOT_NAMED 1942-01-29 01:00:00 NR -23.4467 116.158 bom main 0 0 ______O___P___ -1 -24.8000 117.200 TC -23.1083 115.897 7 13 326
1942026S16116 1942 5 SI WA NOT_NAMED 1942-01-29 03:00:00 NR -23.2200 115.998 main 0 0 __________P___ -1 TC -23.2200 115.998 7 1 341
1942026S16116 1942 5 SI WA NOT_NAMED 1942-01-29 06:00:00 NR -23.3938 116.151 main 0 0 __________P___ -1 TC -23.3938 116.151 7 5 142
1942026S16116 1942 5 SI WA NOT_NAMED 1942-01-29 09:00:00 NR -23.5750 116.303 main 0 0 __________P___ -1 TC -23.5750 116.303 7 5 143
1942026S16116 1942 5 SI WA NOT_NAMED 1942-01-29 11:00:00 NR -23.7000 116.400 main 0 0 __________O___ -1 TC -23.7000 116.400 7 5 145
1942026S16116 1942 5 SI WA NOT_NAMED 1942-01-29 12:00:00 NR -23.7637 116.447 main 0 0 __________P___ -1 TC -23.7637 116.447 7 5 148
1942026S16116 1942 5 SI WA NOT_NAMED 1942-01-29 15:00:00 NR -23.9593 116.579 main 0 0 __________P___ -1 TC -23.9593 116.579 7 5 149
1942026S16116 1942 5 SI WA NOT_NAMED 1942-01-29 18:00:00 NR -24.1598 116.703 main 0 0 __________P___ -1 TC -24.1598 116.703 7 5 152
1942026S16116 1942 5 SI WA NOT_NAMED 1942-01-29 21:00:00 NR -24.3635 116.822 main 0 0 __________P___ -1 TC -24.3635 116.822 7 5 152
1942026S16116 1942 5 SI WA NOT_NAMED 1942-01-29 23:00:00 NR -24.5000 116.900 main 0 __________O___ -1 TC -24.5000 116.900 7 5 153

IBTrACS Databaseについて

本データベースは、米国NOAAが公開する1842年以降の世界の熱帯低気圧のベストトラックデータアーカイブInternational Best Track Archive for Climate Stewardship (IBTrACS)を、ウェブで閲覧しやすい形式に変換したものです。

最終更新日:2021-10-27